Time;durP1;ratioP1;P1;durP2;ratioP2;P2;SDS_P1;SDS_P2;PMS_P1;PMS_P2;Temp;Humidity;BMP_temperature;BMP_pressure;BME280_temperature;BME280_humidity;BME280_pressure;Samples;Min_cycle;Max_cycle;Signal;HPM_P1;HPM_P2
2023/11/19 00:00:33;;;;;;;0.80;0.80;;;9.30;99.90;;;;;;6220788;23;20064;-81
2023/11/19 00:02:59;;;;;;;1.25;0.90;;;9.30;99.90;;;;;;6221486;23;20004;-83
2023/11/19 00:05:25;;;;;;;0.70;0.70;;;9.40;99.90;;;;;;6221159;23;20469;-82
2023/11/19 00:07:50;;;;;;;0.57;0.57;;;9.40;99.90;;;;;;6221768;23;20115;-81
2023/11/19 00:10:20;;;;;;;3.53;0.90;;;9.40;99.90;;;;;;6220718;23;20008;-80
2023/11/19 00:12:48;;;;;;;1.77;1.00;;;9.40;99.90;;;;;;6222702;23;20046;-83
2023/11/19 00:15:14;;;;;;;2.25;1.25;;;9.40;99.90;;;;;;6222801;23;20008;-83
2023/11/19 00:17:44;;;;;;;8.45;4.78;;;9.40;99.90;;;;;;6224040;23;20024;-83
2023/11/19 00:20:14;;;;;;;8.27;3.28;;;9.40;99.90;;;;;;6240935;22;20026;-81
2023/11/19 00:22:39;;;;;;;6.15;2.17;;;9.40;99.90;;;;;;6235653;23;20008;-83
2023/11/19 00:25:06;;;;;;;4.50;1.77;;;9.40;99.90;;;;;;6218786;23;20512;-81
2023/11/19 00:27:32;;;;;;;2.85;2.38;;;9.40;99.90;;;;;;6217693;23;20008;-81
2023/11/19 00:29:58;;;;;;;2.50;1.98;;;9.40;99.90;;;;;;6217727;23;20014;-82
2023/11/19 00:32:24;;;;;;;7.20;5.80;;;9.50;99.90;;;;;;6218353;23;20110;-82
2023/11/19 00:34:50;;;;;;;8.07;6.00;;;9.40;99.90;;;;;;6218501;23;20525;-81
2023/11/19 00:37:16;;;;;;;8.88;6.43;;;9.50;99.90;;;;;;6216145;23;20005;-81
2023/11/19 00:39:43;;;;;;;18.63;11.82;;;9.40;99.90;;;;;;6218059;23;20004;-80
2023/11/19 00:44:45;;;;;;;7.53;5.13;;;9.50;99.90;;;;;;6372526;22;20018;-83
2023/11/19 00:47:11;;;;;;;8.32;4.28;;;9.50;99.90;;;;;;6347775;22;20102;-83
2023/11/19 00:49:37;;;;;;;8.18;4.45;;;9.50;99.90;;;;;;6348040;22;19999;-83
2023/11/19 00:52:03;;;;;;;2.70;1.77;;;9.50;99.90;;;;;;6328247;22;20060;-83
2023/11/19 00:54:29;;;;;;;7.00;3.75;;;9.60;99.90;;;;;;6317443;22;20086;-83
2023/11/19 00:56:55;;;;;;;13.55;7.00;;;9.60;99.90;;;;;;6317167;22;20705;-85
2023/11/19 00:59:21;;;;;;;16.30;5.38;;;9.60;99.90;;;;;;6315595;22;20052;-83
2023/11/19 01:01:51;;;;;;;3.38;1.10;;;9.60;99.90;;;;;;6316597;22;19999;-86
2023/11/19 01:04:16;;;;;;;1.20;1.00;;;9.60;99.90;;;;;;6317145;22;20007;-84
2023/11/19 01:06:42;;;;;;;3.55;1.27;;;9.60;99.90;;;;;;6315557;22;20014;-83
2023/11/19 01:09:09;;;;;;;3.75;1.45;;;9.60;99.90;;;;;;6315521;22;20009;-83
2023/11/19 01:11:35;;;;;;;4.57;2.63;;;9.60;99.90;;;;;;6313865;22;20006;-85
2023/11/19 01:14:01;;;;;;;1.10;0.80;;;9.70;99.90;;;;;;6314155;22;20007;-82
2023/11/19 01:16:26;;;;;;;5.30;1.33;;;9.70;99.90;;;;;;6317457;22;20024;-82
2023/11/19 01:18:52;;;;;;;0.63;0.60;;;9.70;99.90;;;;;;6312657;22;20013;-84
2023/11/19 01:21:18;;;;;;;0.47;0.40;;;9.70;99.90;;;;;;6315101;22;20074;-83
2023/11/19 01:23:45;;;;;;;2.72;0.57;;;9.80;99.90;;;;;;6316978;22;20003;-83
2023/11/19 01:26:12;;;;;;;1.00;0.85;;;9.90;99.90;;;;;;6318673;22;20014;-84
2023/11/19 01:28:44;;;;;;;3.97;0.43;;;9.90;99.90;;;;;;6316777;22;20003;-83
2023/11/19 01:31:15;;;;;;;1.38;0.77;;;9.90;99.90;;;;;;6315670;22;20451;-83
2023/11/19 01:33:41;;;;;;;0.50;0.40;;;10.00;99.90;;;;;;6315105;22;20007;-84
2023/11/19 01:36:08;;;;;;;0.75;0.70;;;10.00;99.90;;;;;;6318050;22;20052;-84
2023/11/19 01:38:34;;;;;;;0.60;0.52;;;10.10;99.90;;;;;;6316674;22;19999;-84
2023/11/19 01:41:02;;;;;;;2.67;0.80;;;10.10;99.90;;;;;;6316645;22;20009;-84
2023/11/19 01:43:41;;;;;;;0.50;0.50;;;10.10;99.90;;;;;;6314512;22;20067;-85
2023/11/19 01:46:09;;;;;;;1.02;0.80;;;10.10;99.90;;;;;;6315366;22;20006;-85
2023/11/19 01:48:40;;;;;;;0.70;0.70;;;10.20;99.90;;;;;;6314555;22;20002;-84
2023/11/19 01:51:08;;;;;;;0.60;0.60;;;10.10;99.90;;;;;;6316594;22;20002;-83
2023/11/19 01:53:36;;;;;;;2.58;0.73;;;10.20;99.90;;;;;;6309845;22;20017;-84
2023/11/19 01:56:03;;;;;;;0.52;0.47;;;10.20;99.90;;;;;;6316702;22;20014;-84
2023/11/19 01:58:29;;;;;;;0.32;0.32;;;10.10;99.90;;;;;;6307604;22;19999;-83
2023/11/19 02:00:56;;;;;;;0.40;0.40;;;10.20;99.90;;;;;;6316289;22;19999;-83
2023/11/19 02:03:25;;;;;;;1.15;0.60;;;10.20;99.90;;;;;;6317806;22;20003;-83
2023/11/19 02:05:53;;;;;;;3.42;0.60;;;10.20;99.90;;;;;;6316612;22;20022;-84
2023/11/19 02:08:20;;;;;;;0.90;0.50;;;10.20;99.90;;;;;;6315108;22;19998;-83
2023/11/19 02:10:46;;;;;;;0.73;0.60;;;10.20;99.90;;;;;;6317075;22;20003;-84
2023/11/19 02:13:13;;;;;;;2.58;0.68;;;10.20;99.90;;;;;;6317551;22;20397;-85
2023/11/19 02:15:40;;;;;;;1.48;0.70;;;10.20;99.90;;;;;;6318877;22;20006;-83
2023/11/19 02:18:23;;;;;;;0.55;0.55;;;10.20;99.90;;;;;;6318310;22;20024;-84
2023/11/19 02:20:50;;;;;;;0.73;0.73;;;10.30;99.90;;;;;;6316358;22;20026;-83
2023/11/19 02:23:17;;;;;;;0.90;0.85;;;10.20;99.90;;;;;;6318223;22;20468;-83
2023/11/19 02:25:47;;;;;;;0.65;0.43;;;10.30;99.90;;;;;;6319902;22;20093;-83
2023/11/19 02:28:13;;;;;;;1.23;0.63;;;10.30;99.90;;;;;;6318879;22;20041;-84
2023/11/19 02:30:38;;;;;;;0.60;0.50;;;10.30;99.90;;;;;;6316598;22;19995;-87
2023/11/19 02:33:08;;;;;;;0.88;0.88;;;10.30;99.90;;;;;;6318032;22;20369;-85
2023/11/19 02:35:34;;;;;;;0.80;0.80;;;10.30;99.90;;;;;;6316685;22;20416;-85
2023/11/19 02:38:00;;;;;;;4.22;1.02;;;10.30;99.90;;;;;;6317239;22;20005;-83
2023/11/19 02:40:26;;;;;;;1.70;1.30;;;10.30;99.90;;;;;;6319753;22;20002;-85
2023/11/19 02:42:55;;;;;;;0.85;0.68;;;10.30;99.90;;;;;;6317573;22;20007;-85
2023/11/19 02:45:24;;;;;;;1.65;0.90;;;10.30;99.90;;;;;;6317619;22;20011;-84
2023/11/19 02:47:51;;;;;;;0.80;0.80;;;10.20;99.90;;;;;;6318439;22;20035;-84
2023/11/19 02:50:24;;;;;;;4.55;0.70;;;10.20;99.90;;;;;;6318154;22;20003;-84
2023/11/19 02:52:51;;;;;;;;;;;10.20;99.90;;;;;;6318984;22;20009;-82
2023/11/19 02:55:17;;;;;;;1.10;0.73;;;10.20;99.90;;;;;;6317197;22;20338;-86
2023/11/19 02:57:48;;;;;;;0.60;0.60;;;10.20;99.90;;;;;;6317797;22;19999;-84
2023/11/19 03:00:32;;;;;;;1.02;0.85;;;10.20;99.90;;;;;;6316961;22;19999;-85
2023/11/19 03:03:17;;;;;;;1.65;1.00;;;10.20;99.90;;;;;;6318033;22;20026;-84
2023/11/19 03:05:44;;;;;;;0.65;0.60;;;10.20;99.90;;;;;;6316821;22;19995;-84
2023/11/19 03:08:10;;;;;;;0.65;0.65;;;10.20;99.90;;;;;;6316656;22;20006;-83
2023/11/19 03:10:35;;;;;;;3.78;0.90;;;10.20;99.90;;;;;;6316715;22;20007;-83
2023/11/19 03:13:02;;;;;;;1.30;0.65;;;10.20;99.90;;;;;;6344828;22;20014;-84
2023/11/19 03:15:28;;;;;;;0.90;0.85;;;10.20;99.90;;;;;;6317689;22;20609;-85
2023/11/19 03:17:54;;;;;;;2.13;0.77;;;10.20;99.90;;;;;;6317610;22;20002;-83
2023/11/19 03:20:20;;;;;;;1.10;0.73;;;10.10;99.90;;;;;;6316502;22;20332;-84
2023/11/19 03:22:46;;;;;;;0.95;0.70;;;10.20;99.90;;;;;;6316151;22;20028;-84
2023/11/19 03:25:12;;;;;;;2.65;0.65;;;10.20;99.90;;;;;;6318072;22;20015;-83
2023/11/19 03:27:39;;;;;;;0.90;0.65;;;10.20;99.90;;;;;;6316596;22;20007;-83
2023/11/19 03:30:11;;;;;;;5.13;1.48;;;10.20;99.90;;;;;;6316451;22;20312;-83
2023/11/19 03:32:38;;;;;;;2.58;0.80;;;10.10;99.90;;;;;;6317004;22;20003;-84
2023/11/19 03:35:07;;;;;;;2.58;0.70;;;10.20;99.90;;;;;;6316122;22;20433;-84
2023/11/19 03:37:33;;;;;;;1.25;0.70;;;10.20;99.90;;;;;;6315104;22;20013;-83
2023/11/19 03:40:02;;;;;;;4.05;0.88;;;10.20;99.90;;;;;;6317948;22;20430;-83
2023/11/19 03:42:31;;;;;;;0.90;0.80;;;10.20;99.90;;;;;;6316880;22;20005;-83
2023/11/19 03:44:57;;;;;;;1.38;0.77;;;10.20;99.90;;;;;;6317720;22;20041;-83
2023/11/19 03:47:23;;;;;;;1.00;0.60;;;10.20;99.90;;;;;;6316504;22;20011;-83
2023/11/19 03:49:50;;;;;;;0.88;0.60;;;10.20;99.90;;;;;;6317629;22;20009;-83
2023/11/19 03:52:17;;;;;;;3.35;0.70;;;10.20;99.90;;;;;;6316608;22;20013;-85
2023/11/19 03:54:43;;;;;;;1.42;0.70;;;10.30;99.90;;;;;;6315517;22;20009;-83
2023/11/19 03:57:12;;;;;;;0.70;0.70;;;10.30;99.90;;;;;;6337265;22;20321;-83
2023/11/19 03:59:38;;;;;;;1.88;0.60;;;10.40;99.90;;;;;;6342430;22;20428;-83
2023/11/19 04:02:04;;;;;;;4.53;0.80;;;10.40;99.90;;;;;;6316417;22;20059;-84
2023/11/19 04:04:30;;;;;;;4.35;0.88;;;10.40;99.90;;;;;;6318182;22;20457;-83
2023/11/19 04:06:56;;;;;;;4.88;1.13;;;10.50;99.90;;;;;;6314314;22;20017;-83
2023/11/19 04:09:22;;;;;;;3.47;1.25;;;10.50;99.90;;;;;;6315591;22;20006;-83
2023/11/19 04:11:48;;;;;;;6.65;1.42;;;10.50;99.90;;;;;;6317040;22;19998;-84
2023/11/19 04:14:14;;;;;;;8.07;1.30;;;10.60;99.90;;;;;;6317439;22;20010;-83
2023/11/19 04:16:41;;;;;;;8.35;1.52;;;10.60;99.90;;;;;;6315158;22;20098;-83
2023/11/19 04:19:06;;;;;;;11.65;1.88;;;10.70;99.90;;;;;;6315242;22;20030;-83
2023/11/19 04:21:33;;;;;;;9.50;1.45;;;10.80;99.90;;;;;;6315385;22;20003;-83
2023/11/19 04:23:59;;;;;;;8.93;1.52;;;10.80;99.90;;;;;;6315518;22;19998;-84
2023/11/19 04:26:24;;;;;;;6.30;1.70;;;10.80;99.90;;;;;;6316064;22;20009;-84
2023/11/19 04:28:50;;;;;;;10.60;2.10;;;10.80;99.90;;;;;;6316762;22;20013;-83
2023/11/19 04:31:16;;;;;;;10.95;1.58;;;10.80;99.90;;;;;;6315171;22;20005;-83
2023/11/19 04:33:43;;;;;;;8.07;2.05;;;10.90;99.90;;;;;;6315840;22;20010;-84
2023/11/19 04:36:10;;;;;;;5.75;1.50;;;10.90;99.90;;;;;;6314186;22;19999;-84
2023/11/19 04:38:35;;;;;;;20.63;2.38;;;10.80;99.90;;;;;;6318061;22;20005;-83
2023/11/19 04:41:02;;;;;;;7.22;2.03;;;10.80;99.90;;;;;;6315866;22;20026;-83
2023/11/19 04:43:28;;;;;;;13.63;1.90;;;11.00;99.90;;;;;;6318992;22;20411;-83
2023/11/19 04:45:53;;;;;;;8.57;2.35;;;11.00;99.90;;;;;;6315895;22;20006;-84
2023/11/19 04:48:19;;;;;;;7.88;1.75;;;11.00;99.90;;;;;;6316111;22;20424;-84
2023/11/19 04:50:45;;;;;;;15.15;3.42;;;11.10;99.90;;;;;;6318053;22;20009;-84
2023/11/19 04:53:11;;;;;;;16.85;2.72;;;11.20;99.90;;;;;;6317124;22;20015;-84
2023/11/19 04:55:37;;;;;;;15.48;2.08;;;11.30;99.90;;;;;;6318308;22;20003;-84
2023/11/19 04:58:03;;;;;;;21.92;2.47;;;11.20;99.90;;;;;;6316225;22;20003;-84
2023/11/19 05:00:29;;;;;;;31.63;4.28;;;11.30;99.90;;;;;;6318744;22;20579;-83
2023/11/19 05:02:55;;;;;;;16.50;2.75;;;11.30;99.90;;;;;;6316946;22;20079;-83
2023/11/19 05:05:21;;;;;;;16.05;2.60;;;11.20;99.90;;;;;;6316050;22;20003;-84
2023/11/19 05:07:47;;;;;;;11.52;2.30;;;11.30;99.90;;;;;;6315273;22;20010;-84
2023/11/19 05:10:12;;;;;;;11.05;2.25;;;11.30;99.90;;;;;;6316842;22;20034;-84
2023/11/19 05:12:39;;;;;;;11.40;2.80;;;11.30;99.90;;;;;;6317857;22;20002;-83
2023/11/19 05:15:05;;;;;;;16.33;2.67;;;11.30;99.90;;;;;;6316425;22;20014;-83
2023/11/19 05:17:31;;;;;;;12.75;2.38;;;11.40;99.90;;;;;;6317057;22;20093;-83
2023/11/19 05:19:57;;;;;;;15.10;2.28;;;11.40;99.90;;;;;;6317571;22;20007;-83
2023/11/19 05:22:23;;;;;;;11.48;2.42;;;11.40;99.90;;;;;;6315751;22;19999;-84
2023/11/19 05:24:49;;;;;;;12.13;1.88;;;11.40;99.90;;;;;;6317555;22;20006;-84
2023/11/19 05:27:15;;;;;;;12.63;3.10;;;11.30;99.90;;;;;;6316965;22;20031;-84
2023/11/19 05:29:41;;;;;;;12.25;2.10;;;11.20;99.90;;;;;;6316732;22;20010;-84
2023/11/19 05:32:07;;;;;;;20.88;3.40;;;11.20;99.90;;;;;;6316375;22;20009;-83
2023/11/19 05:34:33;;;;;;;14.82;2.33;;;11.10;99.90;;;;;;6317359;22;20376;-84
2023/11/19 05:36:59;;;;;;;9.48;2.28;;;11.10;99.90;;;;;;6317183;22;20508;-83
2023/11/19 05:39:25;;;;;;;16.30;2.33;;;11.10;99.90;;;;;;6318122;22;19995;-84
2023/11/19 05:41:51;;;;;;;15.63;3.85;;;11.00;99.90;;;;;;6315613;22;20007;-84
2023/11/19 05:44:18;;;;;;;11.80;2.30;;;11.00;99.90;;;;;;6317434;22;20437;-83
2023/11/19 05:46:45;;;;;;;19.20;3.25;;;10.80;99.90;;;;;;6317901;22;20007;-83
2023/11/19 05:49:11;;;;;;;14.63;4.07;;;10.80;99.90;;;;;;6318516;22;20082;-83
2023/11/19 05:51:40;;;;;;;18.05;3.00;;;10.80;99.90;;;;;;6318135;22;20003;-84
2023/11/19 05:54:10;;;;;;;8.32;2.13;;;10.90;99.90;;;;;;6319273;22;20007;-83
2023/11/19 05:56:36;;;;;;;18.17;3.28;;;10.90;99.90;;;;;;6318643;22;20002;-84
2023/11/19 05:59:14;;;;;;;22.40;3.63;;;10.90;99.90;;;;;;6319045;22;20360;-84
2023/11/19 06:01:41;;;;;;;7.80;3.50;;;10.80;99.90;;;;;;6319319;22;19995;-83
2023/11/19 06:04:07;;;;;;;14.57;2.10;;;10.80;99.90;;;;;;6319089;22;20010;-83
2023/11/19 06:06:33;;;;;;;29.35;3.30;;;10.90;99.90;;;;;;6318619;22;20007;-82
2023/11/19 06:08:59;;;;;;;22.73;3.85;;;10.90;99.90;;;;;;6316740;22;20057;-83
2023/11/19 06:11:26;;;;;;;12.02;2.75;;;10.90;99.90;;;;;;6318921;22;20008;-83
2023/11/19 06:13:52;;;;;;;16.10;3.28;;;10.80;99.90;;;;;;6316617;22;20017;-84
2023/11/19 06:16:18;;;;;;;16.95;2.58;;;10.70;99.90;;;;;;6318488;22;19999;-84
2023/11/19 06:18:44;;;;;;;14.30;2.95;;;10.60;99.90;;;;;;6317083;22;20003;-83
2023/11/19 06:21:11;;;;;;;14.43;2.65;;;10.50;99.90;;;;;;6318993;22;20107;-84
2023/11/19 06:23:37;;;;;;;21.70;4.20;;;10.50;99.90;;;;;;6318969;22;20026;-83
2023/11/19 06:26:05;;;;;;;14.63;3.67;;;10.50;99.90;;;;;;6318936;22;20006;-84
2023/11/19 06:28:31;;;;;;;18.52;3.70;;;10.50;99.90;;;;;;6319134;22;20048;-83
2023/11/19 06:30:57;;;;;;;25.63;3.70;;;10.60;99.90;;;;;;6318058;22;19998;-83
2023/11/19 06:33:24;;;;;;;24.63;2.58;;;10.60;99.90;;;;;;6319581;22;20690;-84
2023/11/19 06:35:50;;;;;;;18.73;2.88;;;10.60;99.90;;;;;;6318666;22;20013;-84
2023/11/19 06:38:16;;;;;;;21.02;3.65;;;10.70;99.90;;;;;;6318864;22;20010;-83
2023/11/19 06:40:42;;;;;;;12.43;3.95;;;10.70;99.90;;;;;;6317500;22;19995;-84
2023/11/19 06:43:10;;;;;;;19.52;4.18;;;10.70;99.90;;;;;;6318906;22;20732;-83
2023/11/19 06:45:39;;;;;;;20.05;3.25;;;10.70;99.90;;;;;;6317898;22;20321;-84
2023/11/19 06:48:05;;;;;;;16.13;2.75;;;10.70;99.90;;;;;;6318939;22;20007;-84
2023/11/19 06:50:32;;;;;;;24.95;3.25;;;10.80;99.90;;;;;;6317778;22;20006;-83
2023/11/19 06:52:58;;;;;;;24.60;3.20;;;10.80;99.90;;;;;;6318053;22;20014;-83
2023/11/19 06:55:23;;;;;;;14.50;2.63;;;10.90;99.90;;;;;;6318502;22;20018;-83
2023/11/19 06:57:49;;;;;;;15.15;3.22;;;10.90;99.90;;;;;;6317397;22;20371;-84
2023/11/19 07:00:15;;;;;;;19.95;4.13;;;10.90;99.90;;;;;;6319588;22;20010;-83
2023/11/19 07:02:41;;;;;;;22.35;4.18;;;10.90;99.90;;;;;;6318274;22;20056;-84
2023/11/19 07:05:08;;;;;;;17.83;3.47;;;10.90;99.90;;;;;;6317974;22;19999;-83
2023/11/19 07:07:35;;;;;;;13.50;2.78;;;10.90;99.90;;;;;;6318739;22;20063;-83
2023/11/19 07:10:02;;;;;;;19.20;3.88;;;10.90;99.90;;;;;;6316673;22;20028;-83
2023/11/19 07:12:27;;;;;;;31.00;3.70;;;10.90;99.90;;;;;;6316394;22;20011;-83
2023/11/19 07:14:54;;;;;;;19.67;3.03;;;10.90;99.90;;;;;;6343175;22;20054;-84
2023/11/19 07:17:20;;;;;;;26.35;4.00;;;10.90;99.90;;;;;;6316476;22;20007;-83
2023/11/19 07:19:47;;;;;;;22.17;3.78;;;10.90;99.90;;;;;;6316166;22;20451;-84
2023/11/19 07:22:13;;;;;;;17.15;3.45;;;10.90;99.90;;;;;;6316241;22;20322;-83
2023/11/19 07:24:41;;;;;;;15.85;4.50;;;10.90;99.90;;;;;;6316142;22;20007;-83
2023/11/19 07:27:08;;;;;;;22.83;3.85;;;10.80;99.90;;;;;;6319020;22;20007;-85
2023/11/19 07:29:35;;;;;;;19.38;4.20;;;10.80;99.90;;;;;;6321420;22;20010;-83
2023/11/19 07:32:04;;;;;;;25.58;5.18;;;10.80;99.90;;;;;;6321385;22;20002;-85
2023/11/19 07:34:30;;;;;;;19.33;3.58;;;10.80;99.90;;;;;;6320891;22;20010;-83
2023/11/19 07:37:02;;;;;;;20.80;5.25;;;10.80;99.90;;;;;;6320194;22;19998;-84
2023/11/19 07:39:28;;;;;;;23.00;4.63;;;10.80;99.90;;;;;;6321041;22;19999;-84
2023/11/19 07:41:53;;;;;;;21.48;5.75;;;10.90;99.90;;;;;;6319128;22;19998;-84
2023/11/19 07:44:21;;;;;;;17.63;4.07;;;10.90;99.90;;;;;;6320235;22;20052;-86
2023/11/19 07:46:47;;;;;;;17.55;3.25;;;10.90;99.90;;;;;;6320666;22;20066;-84
2023/11/19 07:49:14;;;;;;;19.85;5.43;;;11.00;99.90;;;;;;6321056;22;20029;-83
2023/11/19 07:51:40;;;;;;;18.67;4.35;;;11.00;99.90;;;;;;6321034;22;20437;-85
2023/11/19 07:54:06;;;;;;;20.65;4.07;;;11.00;99.90;;;;;;6320747;22;20003;-83
2023/11/19 07:56:38;;;;;;;21.33;3.75;;;11.10;99.90;;;;;;6319921;22;20460;-86
2023/11/19 07:59:03;;;;;;;22.60;4.75;;;11.20;99.90;;;;;;6320440;22;20018;-84
2023/11/19 08:01:29;;;;;;;22.48;4.03;;;11.20;99.90;;;;;;6320306;22;20325;-84
2023/11/19 08:03:55;;;;;;;23.27;4.68;;;11.20;99.90;;;;;;6351025;22;20046;-82
2023/11/19 08:06:21;;;;;;;23.42;5.10;;;11.20;99.90;;;;;;6322860;22;20027;-83
2023/11/19 08:08:48;;;;;;;32.65;7.50;;;11.20;99.90;;;;;;6322723;22;20025;-83
2023/11/19 08:11:14;;;;;;;18.85;4.13;;;11.20;99.90;;;;;;6321043;22;20007;-82
2023/11/19 08:13:40;;;;;;;19.55;4.78;;;11.20;99.90;;;;;;6321958;22;20010;-85
2023/11/19 08:16:06;;;;;;;26.10;3.42;;;11.20;99.90;;;;;;6323317;22;20003;-83
2023/11/19 08:18:32;;;;;;;14.18;3.13;;;11.20;99.90;;;;;;6321967;22;20007;-85
2023/11/19 08:20:59;;;;;;;22.83;4.43;;;11.20;99.90;;;;;;6321688;22;20018;-83
2023/11/19 08:23:25;;;;;;;18.00;4.55;;;11.20;99.90;;;;;;6301695;22;20015;-81
2023/11/19 08:25:52;;;;;;;21.00;5.20;;;11.20;99.90;;;;;;6264858;22;20007;-82
2023/11/19 08:28:18;;;;;;;20.27;4.15;;;11.30;99.90;;;;;;6264919;22;20433;-82
2023/11/19 08:30:44;;;;;;;26.75;4.15;;;11.40;99.90;;;;;;6266366;22;20000;-82
2023/11/19 08:33:10;;;;;;;21.35;3.47;;;11.50;99.90;;;;;;6266321;22;20007;-82
2023/11/19 08:35:36;;;;;;;17.60;2.95;;;11.60;99.90;;;;;;6266742;22;20094;-82
2023/11/19 08:38:01;;;;;;;13.07;3.90;;;11.70;99.90;;;;;;6267804;22;20008;-82
2023/11/19 08:40:28;;;;;;;18.27;4.15;;;11.70;99.90;;;;;;6271587;22;19997;-82
2023/11/19 08:42:53;;;;;;;20.75;3.35;;;11.70;99.90;;;;;;6276105;22;20015;-82
2023/11/19 08:45:19;;;;;;;11.20;3.53;;;11.70;99.90;;;;;;6264297;22;20011;-81
2023/11/19 08:47:45;;;;;;;15.50;3.70;;;11.70;99.90;;;;;;6260878;22;20008;-82
2023/11/19 08:50:11;;;;;;;16.55;4.82;;;11.80;99.90;;;;;;6261757;22;20011;-82
2023/11/19 08:52:37;;;;;;;16.77;3.08;;;11.90;99.90;;;;;;6262761;22;20068;-82
2023/11/19 08:55:05;;;;;;;14.82;3.72;;;11.90;99.90;;;;;;6262426;22;20011;-81
2023/11/19 08:57:32;;;;;;;20.67;4.20;;;12.00;99.90;;;;;;6262343;22;20010;-82
2023/11/19 08:59:58;;;;;;;19.77;3.88;;;12.10;99.90;;;;;;6263027;22;20054;-82
2023/11/19 09:02:24;;;;;;;18.52;4.10;;;12.10;99.90;;;;;;6290168;22;20000;-82
2023/11/19 09:04:50;;;;;;;22.67;3.88;;;12.00;99.90;;;;;;6262500;22;20008;-79
2023/11/19 09:07:16;;;;;;;22.58;4.18;;;12.00;99.90;;;;;;6262338;22;20003;-82
2023/11/19 09:09:42;;;;;;;21.90;4.68;;;12.00;99.90;;;;;;6264091;22;20004;-82
2023/11/19 09:12:08;;;;;;;14.30;2.78;;;12.10;99.90;;;;;;6263857;22;20054;-82
2023/11/19 09:14:34;;;;;;;19.00;3.63;;;12.20;99.90;;;;;;6261796;22;20015;-81
2023/11/19 09:17:00;;;;;;;19.02;2.80;;;12.20;99.90;;;;;;6262553;22;20010;-81
2023/11/19 09:19:28;;;;;;;28.13;4.60;;;12.20;99.90;;;;;;6263111;22;20003;-80
2023/11/19 09:21:54;;;;;;;27.63;4.68;;;12.20;99.90;;;;;;6263695;22;20019;-82
2023/11/19 09:24:20;;;;;;;18.50;3.72;;;12.20;99.90;;;;;;6263408;22;20025;-81
2023/11/19 09:26:46;;;;;;;22.25;4.00;;;12.20;99.90;;;;;;6269873;22;20018;-83
2023/11/19 09:29:14;;;;;;;16.30;3.42;;;12.30;99.90;;;;;;6272436;22;20012;-83
2023/11/19 09:31:40;;;;;;;16.13;3.03;;;12.40;99.90;;;;;;6267503;22;20018;-83
2023/11/19 09:34:05;;;;;;;21.83;3.85;;;12.60;99.90;;;;;;6267216;22;20031;-82
2023/11/19 09:36:31;;;;;;;15.40;3.78;;;12.60;99.90;;;;;;6265787;22;20008;-83
2023/11/19 09:38:57;;;;;;;22.75;3.78;;;12.80;99.90;;;;;;6265621;22;20012;-83
2023/11/19 09:41:24;;;;;;;22.17;3.70;;;13.00;99.90;;;;;;6265817;22;19999;-82
2023/11/19 09:43:50;;;;;;;15.98;2.88;;;13.10;99.90;;;;;;6265197;22;20023;-83
2023/11/19 09:46:16;;;;;;;16.73;2.88;;;13.10;99.90;;;;;;6264539;22;20034;-82
2023/11/19 09:48:44;;;;;;;19.23;4.07;;;13.20;99.90;;;;;;6293125;22;19999;-82
2023/11/19 09:51:11;;;;;;;22.98;3.65;;;13.20;99.90;;;;;;6264981;22;20043;-83
2023/11/19 09:53:37;;;;;;;27.35;4.32;;;13.30;99.90;;;;;;6263597;22;20429;-80
2023/11/19 09:56:05;;;;;;;19.63;3.53;;;13.10;99.90;;;;;;6264591;22;20064;-82
2023/11/19 09:58:34;;;;;;;23.58;3.72;;;13.10;99.90;;;;;;6264225;22;20011;-82
2023/11/19 10:01:00;;;;;;;15.98;4.10;;;13.10;99.90;;;;;;6263091;22;20007;-82
2023/11/19 10:03:40;;;;;;;24.60;6.65;;;13.20;99.90;;;;;;6262231;22;20027;-82
2023/11/19 10:06:10;;;;;;;21.98;4.03;;;13.30;99.90;;;;;;6263343;22;20010;-84
2023/11/19 10:08:39;;;;;;;28.90;6.03;;;13.40;99.90;;;;;;6261331;22;20007;-83
2023/11/19 10:11:06;;;;;;;24.63;5.05;;;13.40;99.90;;;;;;6265275;22;20011;-84
2023/11/19 10:13:37;;;;;;;17.95;3.78;;;13.40;99.90;;;;;;6266846;22;20395;-83
2023/11/19 10:16:12;;;;;;;24.20;2.92;;;13.40;99.90;;;;;;6263325;22;19996;-82
2023/11/19 10:18:47;;;;;;;14.70;3.38;;;13.40;99.90;;;;;;6263775;22;20007;-82
2023/11/19 10:21:16;;;;;;;23.02;4.55;;;13.30;99.90;;;;;;6265781;22;20026;-83
2023/11/19 10:23:52;;;;;;;22.23;5.00;;;13.40;99.90;;;;;;6266359;22;20034;-82
2023/11/19 10:26:19;;;;;;;19.08;3.92;;;13.40;99.90;;;;;;6265448;22;19992;-83
2023/11/19 10:28:49;;;;;;;25.88;3.50;;;13.30;99.90;;;;;;6267525;22;20015;-83
2023/11/19 10:31:16;;;;;;;18.48;3.42;;;13.30;99.90;;;;;;6267690;22;20025;-83
2023/11/19 10:33:44;;;;;;;18.75;5.07;;;13.30;99.90;;;;;;6276560;22;19992;-84
2023/11/19 10:36:14;;;;;;;25.90;3.53;;;13.40;99.90;;;;;;6270272;22;20018;-83
2023/11/19 10:38:41;;;;;;;23.15;3.00;;;13.40;99.90;;;;;;6261270;22;20007;-84
2023/11/19 10:41:07;;;;;;;20.55;3.35;;;13.60;99.90;;;;;;6260021;22;20004;-83
2023/11/19 10:43:44;;;;;;;22.35;4.03;;;13.60;99.90;;;;;;6260853;22;20003;-83
2023/11/19 10:46:12;;;;;;;22.60;4.10;;;13.70;99.90;;;;;;6260367;22;20088;-82
2023/11/19 10:48:39;;;;;;;21.45;2.95;;;13.70;99.90;;;;;;6258715;22;20012;-82
2023/11/19 10:51:10;;;;;;;16.58;3.03;;;13.70;99.90;;;;;;6259439;22;20507;-82
2023/11/19 10:53:38;;;;;;;18.40;2.92;;;13.80;99.90;;;;;;6257566;22;20004;-82
2023/11/19 10:56:10;;;;;;;19.23;3.50;;;13.60;99.90;;;;;;6257140;22;20091;-82
2023/11/19 10:58:39;;;;;;;16.13;2.72;;;13.70;99.90;;;;;;6256475;22;20007;-83
2023/11/19 11:01:13;;;;;;;26.88;3.58;;;13.50;99.90;;;;;;6253501;22;20341;-85
2023/11/19 11:03:40;;;;;;;26.92;2.85;;;13.60;99.90;;;;;;6253937;22;20113;-83
2023/11/19 11:06:06;;;;;;;26.08;2.97;;;13.60;99.90;;;;;;6252543;22;20006;-83
2023/11/19 11:08:36;;;;;;;20.38;2.63;;;13.50;99.90;;;;;;6256005;22;20027;-83
2023/11/19 11:11:04;;;;;;;19.95;3.08;;;13.40;99.90;;;;;;6256924;22;20004;-81
2023/11/19 11:13:31;;;;;;;10.85;3.08;;;13.50;99.90;;;;;;6257967;22;20083;-84
2023/11/19 11:15:58;;;;;;;11.77;2.85;;;13.50;99.90;;;;;;6256257;22;20089;-83
2023/11/19 11:18:27;;;;;;;19.27;3.80;;;13.40;99.90;;;;;;6257044;22;20210;-83
2023/11/19 11:21:06;;;;;;;13.07;3.05;;;13.30;99.90;;;;;;6256591;22;20004;-84
2023/11/19 11:23:48;;;;;;;17.30;2.78;;;13.20;99.90;;;;;;6256072;22;20015;-83
2023/11/19 11:26:40;;;;;;;21.13;2.60;;;13.00;99.90;;;;;;6256644;22;20543;-82
2023/11/19 11:29:16;;;;;;;21.73;3.65;;;12.90;99.90;;;;;;6256517;22;20067;-83
2023/11/19 11:31:54;;;;;;;19.35;4.00;;;12.90;99.90;;;;;;6256805;22;20783;-84
2023/11/19 11:34:37;;;;;;;19.42;2.80;;;12.80;99.90;;;;;;6256363;22;20008;-85
2023/11/19 11:37:13;;;;;;;;;;;12.90;99.90;;;;;;6269542;22;20079;-82
2023/11/19 11:39:43;;;;;;;26.48;4.35;;;13.00;99.90;;;;;;6258429;22;19922;-83
2023/11/19 11:42:18;;;;;;;17.55;3.42;;;13.10;99.90;;;;;;6256884;22;20014;-82
2023/11/19 11:45:08;;;;;;;16.08;3.00;;;13.20;99.90;;;;;;6258778;22;20046;-86
2023/11/19 11:47:43;;;;;;;16.05;3.00;;;13.20;99.90;;;;;;6255347;22;20065;-87
2023/11/19 11:50:18;;;;;;;17.92;2.53;;;13.10;99.90;;;;;;6255783;22;20000;-86
2023/11/19 11:52:57;;;;;;;16.40;3.80;;;13.00;99.90;;;;;;6261098;22;20053;-86
2023/11/19 11:56:00;;;;;;;19.20;3.55;;;13.10;99.90;;;;;;6249264;22;20035;-85
2023/11/19 11:58:31;;;;;;;29.15;5.65;;;13.20;99.90;;;;;;6257816;22;20086;-88
2023/11/19 12:00:59;;;;;;;18.15;3.85;;;13.20;99.90;;;;;;6260572;22;20384;-87
2023/11/19 12:03:28;;;;;;;22.42;3.15;;;13.30;99.90;;;;;;6260058;22;20007;-87
2023/11/19 12:05:54;;;;;;;16.42;4.03;;;13.40;99.90;;;;;;6262711;22;20007;-87
2023/11/19 12:08:25;;;;;;;11.70;2.72;;;13.40;99.90;;;;;;6261946;22;20038;-88
2023/11/19 12:11:00;;;;;;;16.15;4.57;;;13.40;99.90;;;;;;6261840;22;20008;-85
2023/11/19 12:13:48;;;;;;;19.15;4.38;;;13.20;99.90;;;;;;6262441;22;20008;-85
2023/11/19 12:16:14;;;;;;;15.40;3.15;;;13.10;99.90;;;;;;6262441;22;20007;-87
2023/11/19 12:18:41;;;;;;;17.25;3.47;;;13.20;99.90;;;;;;6264844;22;20000;-86
2023/11/19 12:21:09;;;;;;;12.77;3.13;;;13.30;99.90;;;;;;6265604;22;20003;-85
2023/11/19 12:23:35;;;;;;;17.73;3.25;;;13.50;99.90;;;;;;6273271;22;20003;-86
2023/11/19 12:26:01;;;;;;;18.63;3.58;;;13.60;99.90;;;;;;6275106;22;20127;-86
2023/11/19 12:28:27;;;;;;;14.57;3.30;;;13.70;99.90;;;;;;6264149;22;20008;-85
2023/11/19 12:31:10;;;;;;;14.98;2.70;;;13.70;99.90;;;;;;6264698;22;20006;-85
2023/11/19 12:33:37;;;;;;;14.90;3.25;;;13.90;99.90;;;;;;6261932;22;20035;-82
2023/11/19 12:36:05;;;;;;;19.63;6.20;;;13.80;99.90;;;;;;6261446;22;20000;-83
2023/11/19 12:38:31;;;;;;;20.98;4.28;;;13.70;99.90;;;;;;6261920;22;20039;-83
2023/11/19 12:41:08;;;;;;;12.10;3.20;;;13.80;99.90;;;;;;6261007;22;20497;-82
2023/11/19 12:43:37;;;;;;;16.90;4.93;;;13.80;99.90;;;;;;6261008;22;20000;-83
2023/11/19 12:46:16;;;;;;;18.90;6.28;;;13.80;99.90;;;;;;6261513;22;20003;-84
2023/11/19 12:48:42;;;;;;;20.65;6.63;;;13.80;99.90;;;;;;6262203;22;20008;-84